createdAt,value
2023-01-19T00:00:25.399Z,30.57
2023-01-19T00:02:53.158Z,18.53
2023-01-19T00:05:20.165Z,24.70
2023-01-19T00:07:47.015Z,22.37
2023-01-19T00:10:14.034Z,22.63
2023-01-19T00:12:40.971Z,23.97
2023-01-19T00:15:08.472Z,25.30
2023-01-19T00:17:35.417Z,25.43
2023-01-19T00:20:02.360Z,23.83
2023-01-19T00:22:30.692Z,32.83
2023-01-19T00:24:57.734Z,22.73
2023-01-19T00:27:24.989Z,26.00
2023-01-19T00:29:51.909Z,24.27
2023-01-19T00:32:20.372Z,30.47
2023-01-19T00:34:49.657Z,22.60
2023-01-19T00:37:17.509Z,25.73
2023-01-19T00:39:45.139Z,23.27
2023-01-19T00:42:31.565Z,25.00
2023-01-19T00:44:58.513Z,21.93
2023-01-19T00:47:25.498Z,23.27
2023-01-19T00:49:52.527Z,24.43
2023-01-19T00:52:19.705Z,30.57
2023-01-19T00:54:46.635Z,28.30
2023-01-19T00:57:14.841Z,22.27
2023-01-19T00:59:41.752Z,25.63
2023-01-19T01:02:08.842Z,28.13
2023-01-19T01:04:35.979Z,19.83
2023-01-19T01:07:03.436Z,32.27
2023-01-19T01:09:30.655Z,21.73
2023-01-19T01:11:57.513Z,22.43
2023-01-19T01:14:26.889Z,23.73
2023-01-19T01:16:53.923Z,26.30
2023-01-19T01:19:24.503Z,25.03
2023-01-19T01:21:51.416Z,30.33
2023-01-19T01:24:18.935Z,23.53
2023-01-19T01:26:46.067Z,29.63
2023-01-19T01:29:13.073Z,23.80
2023-01-19T01:31:40.172Z,17.97
2023-01-19T01:34:07.484Z,19.20
2023-01-19T01:36:35.578Z,25.77
2023-01-19T01:39:02.550Z,22.73
2023-01-19T01:41:29.610Z,21.47
2023-01-19T01:44:01.895Z,24.07
2023-01-19T01:46:31.779Z,25.77
2023-01-19T01:49:09.676Z,25.00
2023-01-19T01:51:44.044Z,24.83
2023-01-19T01:54:21.452Z,28.73
2023-01-19T01:56:51.457Z,20.27
2023-01-19T01:59:26.283Z,20.30
2023-01-19T02:02:14.820Z,24.63
2023-01-19T02:05:04.286Z,26.00
2023-01-19T02:08:05.137Z,33.47
2023-01-19T02:10:52.018Z,19.80
2023-01-19T02:13:22.477Z,23.93
2023-01-19T02:15:55.111Z,22.67
2023-01-19T02:18:24.641Z,29.37
2023-01-19T02:21:11.661Z,29.07
2023-01-19T02:23:41.496Z,21.10
2023-01-19T02:26:10.697Z,27.73
2023-01-19T02:28:43.489Z,19.07
2023-01-19T02:31:11.344Z,25.27
2023-01-19T02:33:38.684Z,26.47
2023-01-19T02:36:08.231Z,26.53
2023-01-19T02:38:36.666Z,25.63
2023-01-19T02:41:06.368Z,24.80
2023-01-19T02:43:33.800Z,33.20
2023-01-19T02:46:00.763Z,22.23
2023-01-19T02:48:27.770Z,31.80
2023-01-19T02:51:04.252Z,24.53
2023-01-19T02:53:43.536Z,26.80
2023-01-19T02:56:42.377Z,28.20
2023-01-19T02:59:31.743Z,25.93
2023-01-19T03:02:26.679Z,22.20
2023-01-19T03:05:08.432Z,28.97
2023-01-19T03:08:03.957Z,20.17
2023-01-19T03:10:36.676Z,25.87
2023-01-19T03:13:11.267Z,29.43
2023-01-19T03:15:58.128Z,29.43
2023-01-19T03:18:29.642Z,25.77
2023-01-19T03:21:01.582Z,30.37
2023-01-19T03:23:34.050Z,25.17
2023-01-19T03:26:02.262Z,32.60
2023-01-19T03:28:30.755Z,28.47
2023-01-19T03:31:10.800Z,30.43
2023-01-19T03:33:40.525Z,29.27
2023-01-19T03:36:16.679Z,31.10
2023-01-19T03:38:46.513Z,34.57
2023-01-19T03:41:16.792Z,29.63
2023-01-19T03:43:45.839Z,26.13
2023-01-19T03:46:17.345Z,24.40
2023-01-19T03:48:46.906Z,42.37
2023-01-19T03:51:14.582Z,33.47
2023-01-19T03:53:42.090Z,30.70
2023-01-19T03:56:23.038Z,29.77
2023-01-19T03:58:50.511Z,27.90
2023-01-19T04:01:18.759Z,34.27
2023-01-19T04:03:47.214Z,33.70
2023-01-19T04:06:14.713Z,24.57
2023-01-19T04:08:41.821Z,32.47
2023-01-19T04:11:08.677Z,27.70
2023-01-19T04:13:36.167Z,32.77
2023-01-19T04:16:04.188Z,30.50
2023-01-19T04:18:34.641Z,25.07
2023-01-19T04:21:07.537Z,30.17
2023-01-19T04:23:35.416Z,25.30
2023-01-19T04:26:08.025Z,35.63
2023-01-19T04:28:37.213Z,33.67
2023-01-19T04:31:05.779Z,27.57
2023-01-19T04:33:33.431Z,29.03
2023-01-19T04:36:00.770Z,25.80
2023-01-19T04:38:27.869Z,25.57
2023-01-19T04:40:55.399Z,33.17
2023-01-19T04:43:23.465Z,30.90
2023-01-19T04:45:50.394Z,30.00
2023-01-19T04:48:18.614Z,23.47
2023-01-19T04:50:45.934Z,29.63
2023-01-19T04:53:13.929Z,32.60
2023-01-19T04:55:41.226Z,34.87
2023-01-19T04:58:08.316Z,36.60
2023-01-19T05:00:35.467Z,29.23
2023-01-19T05:03:02.732Z,27.77
2023-01-19T05:05:30.583Z,37.40
2023-01-19T05:07:57.565Z,40.47
2023-01-19T05:10:24.561Z,30.47
2023-01-19T05:12:51.986Z,31.23
2023-01-19T05:15:19.036Z,33.17
2023-01-19T05:17:46.746Z,34.93
2023-01-19T05:20:16.188Z,27.20
2023-01-19T05:22:48.547Z,35.73
2023-01-19T05:25:15.492Z,32.30
2023-01-19T05:27:42.556Z,39.90
2023-01-19T05:30:10.297Z,32.87
2023-01-19T05:32:37.242Z,29.57
2023-01-19T05:35:04.449Z,36.43
2023-01-19T05:37:32.733Z,32.03
2023-01-19T05:39:59.678Z,33.47
2023-01-19T05:42:32.023Z,36.53
2023-01-19T05:45:00.255Z,36.33
2023-01-19T05:47:29.481Z,25.33
2023-01-19T05:49:56.587Z,31.37
2023-01-19T05:52:25.031Z,34.47
2023-01-19T05:54:52.251Z,35.50
2023-01-19T05:57:19.228Z,30.93
2023-01-19T05:59:46.416Z,37.97
2023-01-19T06:02:13.432Z,34.33
2023-01-19T06:04:40.541Z,39.83
2023-01-19T06:07:07.512Z,39.67
2023-01-19T06:09:34.457Z,34.97
2023-01-19T06:12:01.527Z,31.63
2023-01-19T06:14:28.443Z,30.83
2023-01-19T06:16:55.353Z,31.20
2023-01-19T06:19:22.291Z,36.10
2023-01-19T06:21:52.347Z,27.67
2023-01-19T06:24:19.815Z,38.90
2023-01-19T06:26:49.769Z,34.93
2023-01-19T06:29:16.897Z,41.73
2023-01-19T06:31:44.135Z,42.63
2023-01-19T06:34:11.452Z,36.03
2023-01-19T06:36:38.824Z,36.87
2023-01-19T06:39:06.264Z,35.97
2023-01-19T06:41:34.098Z,35.07
2023-01-19T06:44:01.614Z,34.07
2023-01-19T06:46:29.068Z,36.07
2023-01-19T06:48:56.049Z,37.57
2023-01-19T06:51:23.491Z,37.10
2023-01-19T06:53:50.496Z,29.37
2023-01-19T06:56:17.418Z,34.10
2023-01-19T06:58:47.217Z,34.27
2023-01-19T07:01:14.452Z,34.97
2023-01-19T07:03:41.390Z,32.87
2023-01-19T07:06:08.607Z,37.50
2023-01-19T07:08:36.911Z,28.93
2023-01-19T07:11:24.772Z,30.90
2023-01-19T07:13:55.484Z,33.43
2023-01-19T07:16:23.731Z,23.37
2023-01-19T07:18:51.049Z,26.27
2023-01-19T07:21:18.530Z,32.53
2023-01-19T07:23:49.075Z,32.53
2023-01-19T07:26:18.677Z,32.23
2023-01-19T07:28:47.369Z,33.37
2023-01-19T07:31:16.398Z,37.93
2023-01-19T07:33:43.775Z,26.83
2023-01-19T07:36:11.630Z,31.40
2023-01-19T07:38:38.953Z,31.27
2023-01-19T07:41:08.581Z,38.53
2023-01-19T07:43:37.276Z,36.57
2023-01-19T07:46:07.167Z,32.57
2023-01-19T07:48:35.854Z,25.67
2023-01-19T07:51:12.961Z,33.40
2023-01-19T07:53:42.136Z,33.77
2023-01-19T07:56:10.235Z,34.67
2023-01-19T07:58:38.982Z,45.33
2023-01-19T08:01:13.408Z,34.00
2023-01-19T08:03:41.370Z,31.10
2023-01-19T08:06:19.736Z,28.10
2023-01-19T08:08:47.213Z,30.00
2023-01-19T08:11:16.041Z,26.67
2023-01-19T08:13:43.763Z,32.17
2023-01-19T08:16:10.855Z,30.07
2023-01-19T08:18:38.470Z,28.10
2023-01-19T08:21:05.884Z,34.73
2023-01-19T08:23:34.469Z,32.23
2023-01-19T08:26:27.562Z,31.87
2023-01-19T08:28:55.593Z,37.63
2023-01-19T08:31:25.018Z,44.67
2023-01-19T08:33:52.924Z,34.03
2023-01-19T08:36:21.590Z,33.77
2023-01-19T08:38:48.839Z,27.13
2023-01-19T08:41:19.416Z,40.03
2023-01-19T08:43:46.772Z,26.30
2023-01-19T08:46:17.624Z,25.77
2023-01-19T08:48:51.131Z,26.90
2023-01-19T08:51:18.781Z,32.03
2023-01-19T14:46:19.702Z,12.13
2023-01-19T14:48:48.971Z,14.80
2023-01-19T14:51:26.665Z,13.00
2023-01-19T14:53:58.617Z,9.57
2023-01-19T14:56:31.517Z,15.53
2023-01-19T14:59:01.045Z,13.53
2023-01-19T15:01:28.989Z,11.43
2023-01-19T15:03:57.486Z,12.37
2023-01-19T15:06:26.502Z,8.40
2023-01-19T15:08:54.242Z,8.13
2023-01-19T15:11:32.616Z,13.47
2023-01-19T15:14:00.195Z,8.67
2023-01-19T15:16:29.894Z,7.67
2023-01-19T15:18:56.891Z,10.23
2023-01-19T15:21:26.481Z,19.57
2023-01-19T15:23:54.737Z,13.03
2023-01-19T15:26:24.302Z,12.73
2023-01-19T15:28:52.063Z,8.17
2023-01-19T15:31:24.326Z,13.33
2023-01-19T15:33:51.611Z,11.43
2023-01-19T15:36:20.429Z,17.10
2023-01-19T15:38:50.853Z,16.87
2023-01-19T15:41:29.938Z,9.03
2023-01-19T15:43:57.919Z,12.03
2023-01-19T15:46:25.911Z,9.93
2023-01-19T15:48:53.706Z,12.70
2023-01-19T15:51:23.207Z,9.47
2023-01-19T15:53:50.506Z,8.70
2023-01-19T15:56:19.619Z,15.40
2023-01-19T15:58:46.927Z,11.97
2023-01-19T16:01:15.924Z,8.70
2023-01-19T16:03:43.258Z,11.00
2023-01-19T16:06:10.554Z,11.97
2023-01-19T16:08:38.155Z,14.83
2023-01-19T16:11:13.654Z,13.13
2023-01-19T16:13:40.788Z,13.07
2023-01-19T16:16:13.873Z,9.03
2023-01-19T16:18:41.016Z,22.47
2023-01-19T16:21:07.980Z,12.53
2023-01-19T16:23:34.907Z,12.00
2023-01-19T16:26:05.074Z,17.47
2023-01-19T16:28:32.049Z,9.67
2023-01-19T16:30:58.968Z,12.93
2023-01-19T16:33:25.919Z,13.50
2023-01-19T16:35:53.318Z,19.37
2023-01-19T16:38:22.689Z,14.17
2023-01-19T16:40:49.701Z,16.50
2023-01-19T16:43:16.629Z,12.83
2023-01-19T16:46:01.377Z,11.97
2023-01-19T16:48:28.996Z,19.47
2023-01-19T16:51:00.365Z,16.97
2023-01-19T16:53:28.041Z,14.57
2023-01-19T16:55:55.207Z,14.97
2023-01-19T16:58:22.448Z,17.70
2023-01-19T17:00:49.810Z,18.13
2023-01-19T17:03:17.111Z,13.10
2023-01-19T17:05:49.491Z,14.57
2023-01-19T17:08:18.961Z,17.00
2023-01-19T17:10:47.300Z,18.40
2023-01-19T17:13:14.295Z,14.70
2023-01-19T17:15:41.304Z,17.40
2023-01-19T17:18:10.221Z,9.93
2023-01-19T17:20:37.337Z,16.67
2023-01-19T17:23:04.401Z,9.43
2023-01-19T17:25:31.399Z,19.10
2023-01-19T17:28:01.456Z,16.03
2023-01-19T17:30:28.787Z,11.47
2023-01-19T17:32:55.984Z,20.03
2023-01-19T17:35:23.134Z,14.27
2023-01-19T17:37:54.169Z,9.27
2023-01-19T17:40:21.206Z,14.03
2023-01-19T17:42:48.241Z,14.70
2023-01-19T17:45:15.270Z,11.73
2023-01-19T17:47:42.166Z,11.50
2023-01-19T17:50:10.090Z,13.67
2023-01-19T17:52:38.074Z,19.63
2023-01-19T17:55:05.420Z,12.73
2023-01-19T17:57:32.341Z,14.87
2023-01-19T17:59:59.500Z,9.83
2023-01-19T18:02:26.484Z,14.23
2023-01-19T18:04:53.491Z,14.40
2023-01-19T18:07:20.587Z,18.67
2023-01-19T18:09:47.547Z,8.30
2023-01-19T18:12:14.481Z,9.83
2023-01-19T18:14:41.633Z,11.80
2023-01-19T18:17:08.738Z,12.17
2023-01-19T18:19:35.769Z,8.07
2023-01-19T18:22:02.808Z,11.90
2023-01-19T18:24:29.731Z,10.90
2023-01-19T18:26:56.733Z,13.53
2023-01-19T18:29:23.810Z,11.00
2023-01-19T18:31:50.790Z,9.33
2023-01-19T18:34:17.881Z,13.30
2023-01-19T18:36:44.907Z,11.27
2023-01-19T18:39:12.103Z,13.87
2023-01-19T18:41:41.872Z,12.87
2023-01-19T18:44:09.933Z,11.53
2023-01-19T18:46:37.699Z,15.07
2023-01-19T18:49:05.513Z,14.33
2023-01-19T18:51:32.571Z,13.67
2023-01-19T18:53:59.713Z,9.97
2023-01-19T18:56:26.895Z,9.27
2023-01-19T18:58:54.199Z,16.77
2023-01-19T19:01:27.065Z,8.87
2023-01-19T19:03:57.207Z,14.30
2023-01-19T19:06:27.069Z,20.30
2023-01-19T19:08:56.118Z,11.00
2023-01-19T19:11:24.638Z,17.33
2023-01-19T19:14:00.217Z,10.70
2023-01-19T19:16:28.950Z,18.10
2023-01-19T19:18:56.398Z,16.17
2023-01-19T19:21:25.320Z,15.10
2023-01-19T19:23:54.961Z,10.60
2023-01-19T19:26:23.818Z,14.20
2023-01-19T19:28:50.760Z,8.93
2023-01-19T19:31:20.908Z,11.87
2023-01-19T19:33:51.003Z,12.17
2023-01-19T19:36:20.009Z,8.83
2023-01-19T19:38:52.220Z,12.20
2023-01-19T19:41:23.005Z,16.10
2023-01-19T19:43:50.815Z,15.00
2023-01-19T19:46:26.317Z,10.30
2023-01-19T19:48:54.439Z,10.60
2023-01-19T19:51:27.543Z,15.07
2023-01-19T19:53:56.856Z,8.63
2023-01-19T19:56:25.909Z,10.37
2023-01-19T19:58:55.808Z,11.43
2023-01-19T20:01:28.512Z,11.30
2023-01-19T20:03:57.617Z,7.07
2023-01-19T20:06:26.023Z,11.40
2023-01-19T20:08:55.388Z,9.23
2023-01-19T20:11:27.444Z,11.37
2023-01-19T20:13:54.793Z,13.37
2023-01-19T20:16:23.331Z,10.90
2023-01-19T20:18:54.450Z,10.57
2023-01-19T20:21:27.547Z,6.87
2023-01-19T20:23:56.814Z,9.17
2023-01-19T20:26:27.234Z,10.67
2023-01-19T20:28:56.926Z,15.57
2023-01-19T20:31:27.334Z,9.90
2023-01-19T20:33:56.506Z,13.83
2023-01-19T20:36:24.606Z,13.00
2023-01-19T20:38:54.247Z,10.83
2023-01-19T20:41:22.596Z,11.37
2023-01-19T20:43:50.645Z,6.17
2023-01-19T20:46:18.495Z,11.97
2023-01-19T20:48:50.973Z,11.50
2023-01-19T20:51:19.102Z,12.13
2023-01-19T20:53:46.877Z,11.40
2023-01-19T20:56:15.609Z,13.03
2023-01-19T20:58:43.061Z,10.70
2023-01-19T21:01:21.902Z,8.97
2023-01-19T21:03:49.322Z,10.50
2023-01-19T21:06:16.846Z,9.73
2023-01-19T21:08:44.399Z,7.20
2023-01-19T21:11:13.230Z,4.93
2023-01-19T21:13:40.193Z,13.10
2023-01-19T21:16:07.922Z,10.73
2023-01-19T21:18:38.093Z,9.70
2023-01-19T21:21:05.047Z,11.67
2023-01-19T21:23:32.054Z,11.07
2023-01-19T21:26:00.090Z,10.47
2023-01-19T21:28:28.699Z,9.77
2023-01-19T21:30:56.314Z,12.67
2023-01-19T21:33:23.516Z,13.83
2023-01-19T21:35:55.454Z,12.77
2023-01-19T21:38:24.928Z,8.07
2023-01-19T21:40:51.853Z,10.17
2023-01-19T21:43:20.147Z,7.13
2023-01-19T21:45:48.580Z,7.90
2023-01-19T21:48:17.349Z,15.33
2023-01-19T21:50:44.692Z,9.83
2023-01-19T21:53:12.004Z,8.17
2023-01-19T21:55:44.624Z,12.97
2023-01-19T21:58:11.507Z,10.27
2023-01-19T22:00:38.487Z,5.10
2023-01-19T22:03:05.495Z,8.93
2023-01-19T22:05:37.176Z,12.63
2023-01-19T22:08:06.377Z,8.20
2023-01-19T22:10:37.724Z,6.77
2023-01-19T22:13:06.720Z,9.90
2023-01-19T22:15:33.851Z,9.37
2023-01-19T22:18:00.853Z,8.67
2023-01-19T22:20:28.147Z,7.13
2023-01-19T22:22:56.053Z,6.87
2023-01-19T22:25:27.683Z,7.00
2023-01-19T22:27:55.814Z,9.30
2023-01-19T22:30:22.789Z,6.93
2023-01-19T22:32:49.886Z,11.13
2023-01-19T22:35:17.025Z,12.00
2023-01-19T22:37:43.901Z,7.20
2023-01-19T22:40:11.645Z,8.30
2023-01-19T22:42:39.281Z,10.50
2023-01-19T22:45:06.742Z,6.90
2023-01-19T22:47:33.769Z,5.73
2023-01-19T22:50:00.687Z,9.50
2023-01-19T22:52:27.514Z,6.53
2023-01-19T22:54:56.438Z,11.27
2023-01-19T22:57:23.330Z,9.47
2023-01-19T22:59:50.189Z,10.10
2023-01-19T23:02:18.631Z,10.83
2023-01-19T23:04:47.429Z,8.30
2023-01-19T23:07:14.353Z,8.90
2023-01-19T23:09:41.275Z,8.60
2023-01-19T23:12:08.124Z,7.50
2023-01-19T23:14:36.322Z,9.50
2023-01-19T23:17:03.275Z,10.13
2023-01-19T23:19:30.305Z,10.43
2023-01-19T23:21:57.350Z,7.47
2023-01-19T23:24:24.193Z,11.37
2023-01-19T23:26:51.299Z,6.93
2023-01-19T23:29:18.398Z,6.93
2023-01-19T23:31:47.855Z,6.60
2023-01-19T23:34:14.883Z,9.23
2023-01-19T23:36:43.221Z,12.80
2023-01-19T23:39:16.597Z,8.73
2023-01-19T23:41:43.973Z,8.40
2023-01-19T23:44:10.799Z,10.90
2023-01-19T23:46:38.602Z,9.73
2023-01-19T23:49:05.547Z,7.47
2023-01-19T23:51:33.334Z,13.23
2023-01-19T23:54:00.825Z,9.53
2023-01-19T23:56:30.320Z,11.53
2023-01-19T23:59:03.942Z,8.97
